sensor_id;sensor_type;location;lat;lon;timestamp;temperature;humidity
40638;DHT22;26336;44.696;10.622;2023-07-13T00:01:41;28.10;99.90
40638;DHT22;26336;44.696;10.622;2023-07-13T00:04:46;28.00;99.90
40638;DHT22;26336;44.696;10.622;2023-07-13T00:07:51;28.00;99.90
40638;DHT22;26336;44.696;10.622;2023-07-13T00:10:54;28.00;99.90
40638;DHT22;26336;44.696;10.622;2023-07-13T00:13:58;28.00;99.90
40638;DHT22;26336;44.696;10.622;2023-07-13T00:17:03;27.90;99.90
40638;DHT22;26336;44.696;10.622;2023-07-13T00:20:07;27.90;99.90
40638;DHT22;26336;44.696;10.622;2023-07-13T00:23:12;27.80;99.90
40638;DHT22;26336;44.696;10.622;2023-07-13T00:26:19;27.80;99.90
40638;DHT22;26336;44.696;10.622;2023-07-13T00:29:23;27.70;99.90
40638;DHT22;26336;44.696;10.622;2023-07-13T00:32:26;27.60;99.90
40638;DHT22;26336;44.696;10.622;2023-07-13T00:35:31;27.60;99.90
40638;DHT22;26336;44.696;10.622;2023-07-13T00:38:35;27.50;99.40
40638;DHT22;26336;44.696;10.622;2023-07-13T00:41:40;27.50;98.90
40638;DHT22;26336;44.696;10.622;2023-07-13T00:45:03;27.40;98.40
40638;DHT22;26336;44.696;10.622;2023-07-13T00:48:08;27.30;98.20
40638;DHT22;26336;44.696;10.622;2023-07-13T00:51:15;27.30;98.20
40638;DHT22;26336;44.696;10.622;2023-07-13T00:54:30;27.30;98.20
40638;DHT22;26336;44.696;10.622;2023-07-13T00:57:36;27.30;98.10
40638;DHT22;26336;44.696;10.622;2023-07-13T01:00:40;27.30;97.80
40638;DHT22;26336;44.696;10.622;2023-07-13T01:03:45;27.30;97.90
40638;DHT22;26336;44.696;10.622;2023-07-13T01:06:52;27.30;97.40
40638;DHT22;26336;44.696;10.622;2023-07-13T01:09:56;27.20;97.20
40638;DHT22;26336;44.696;10.622;2023-07-13T01:13:01;27.20;97.10
40638;DHT22;26336;44.696;10.622;2023-07-13T01:16:18;27.20;97.00
40638;DHT22;26336;44.696;10.622;2023-07-13T01:19:42;27.10;97.00
40638;DHT22;26336;44.696;10.622;2023-07-13T01:22:46;27.10;97.00
40638;DHT22;26336;44.696;10.622;2023-07-13T01:25:52;27.00;97.20
40638;DHT22;26336;44.696;10.622;2023-07-13T01:28:56;26.70;97.40
40638;DHT22;26336;44.696;10.622;2023-07-13T01:32:00;26.50;97.70
40638;DHT22;26336;44.696;10.622;2023-07-13T01:35:04;26.40;97.70
40638;DHT22;26336;44.696;10.622;2023-07-13T01:38:09;26.40;97.90
40638;DHT22;26336;44.696;10.622;2023-07-13T01:41:13;26.60;97.70
40638;DHT22;26336;44.696;10.622;2023-07-13T01:44:17;26.70;97.70
40638;DHT22;26336;44.696;10.622;2023-07-13T01:47:22;26.60;97.50
40638;DHT22;26336;44.696;10.622;2023-07-13T01:50:30;26.50;97.70
40638;DHT22;26336;44.696;10.622;2023-07-13T01:53:34;26.50;97.60
40638;DHT22;26336;44.696;10.622;2023-07-13T01:56:39;26.50;97.50
40638;DHT22;26336;44.696;10.622;2023-07-13T01:59:45;26.40;97.70
40638;DHT22;26336;44.696;10.622;2023-07-13T02:02:49;26.50;97.90
40638;DHT22;26336;44.696;10.622;2023-07-13T02:05:53;26.40;98.40
40638;DHT22;26336;44.696;10.622;2023-07-13T02:08:58;26.30;98.90
40638;DHT22;26336;44.696;10.622;2023-07-13T02:12:02;26.30;98.70
40638;DHT22;26336;44.696;10.622;2023-07-13T02:15:10;26.30;98.90
40638;DHT22;26336;44.696;10.622;2023-07-13T02:18:15;26.30;98.90
40638;DHT22;26336;44.696;10.622;2023-07-13T02:21:20;26.40;98.90
40638;DHT22;26336;44.696;10.622;2023-07-13T02:24:24;26.40;98.90
40638;DHT22;26336;44.696;10.622;2023-07-13T02:27:28;26.30;99.00
40638;DHT22;26336;44.696;10.622;2023-07-13T02:30:34;26.20;99.30
40638;DHT22;26336;44.696;10.622;2023-07-13T02:33:38;26.20;99.40
40638;DHT22;26336;44.696;10.622;2023-07-13T02:36:42;26.30;99.30
40638;DHT22;26336;44.696;10.622;2023-07-13T02:39:49;26.20;99.40
40638;DHT22;26336;44.696;10.622;2023-07-13T02:42:54;26.10;99.70
40638;DHT22;26336;44.696;10.622;2023-07-13T02:45:59;26.10;99.50
40638;DHT22;26336;44.696;10.622;2023-07-13T02:49:08;26.00;99.80
40638;DHT22;26336;44.696;10.622;2023-07-13T02:52:12;25.90;99.80
40638;DHT22;26336;44.696;10.622;2023-07-13T02:55:16;25.90;99.70
40638;DHT22;26336;44.696;10.622;2023-07-13T02:58:20;25.80;99.90
40638;DHT22;26336;44.696;10.622;2023-07-13T03:01:24;25.80;99.90
40638;DHT22;26336;44.696;10.622;2023-07-13T03:04:29;25.70;99.90
40638;DHT22;26336;44.696;10.622;2023-07-13T03:07:33;25.70;99.90
40638;DHT22;26336;44.696;10.622;2023-07-13T03:10:38;25.80;99.90
40638;DHT22;26336;44.696;10.622;2023-07-13T03:13:45;25.80;99.90
40638;DHT22;26336;44.696;10.622;2023-07-13T03:16:50;25.70;99.90
40638;DHT22;26336;44.696;10.622;2023-07-13T03:19:56;25.70;99.90
40638;DHT22;26336;44.696;10.622;2023-07-13T03:23:00;25.70;99.90
40638;DHT22;26336;44.696;10.622;2023-07-13T03:26:18;25.70;99.90
40638;DHT22;26336;44.696;10.622;2023-07-13T03:29:23;25.70;99.90
40638;DHT22;26336;44.696;10.622;2023-07-13T03:32:28;25.80;99.90
40638;DHT22;26336;44.696;10.622;2023-07-13T03:35:33;25.90;99.90
40638;DHT22;26336;44.696;10.622;2023-07-13T03:38:40;26.00;99.90
40638;DHT22;26336;44.696;10.622;2023-07-13T03:41:44;26.20;99.60
40638;DHT22;26336;44.696;10.622;2023-07-13T03:44:50;26.00;99.50
40638;DHT22;26336;44.696;10.622;2023-07-13T03:47:56;26.00;99.60
40638;DHT22;26336;44.696;10.622;2023-07-13T03:51:02;26.00;99.50
40638;DHT22;26336;44.696;10.622;2023-07-13T03:54:09;26.10;99.30
40638;DHT22;26336;44.696;10.622;2023-07-13T03:57:18;26.10;99.20
40638;DHT22;26336;44.696;10.622;2023-07-13T04:00:22;26.10;99.20
40638;DHT22;26336;44.696;10.622;2023-07-13T04:03:26;26.10;99.10
40638;DHT22;26336;44.696;10.622;2023-07-13T04:06:32;26.20;99.10
40638;DHT22;26336;44.696;10.622;2023-07-13T04:09:36;26.20;99.10
40638;DHT22;26336;44.696;10.622;2023-07-13T04:12:43;26.30;99.00
40638;DHT22;26336;44.696;10.622;2023-07-13T04:15:48;26.30;98.90
40638;DHT22;26336;44.696;10.622;2023-07-13T04:18:52;26.30;98.90
40638;DHT22;26336;44.696;10.622;2023-07-13T04:22:02;26.30;99.00
40638;DHT22;26336;44.696;10.622;2023-07-13T04:25:10;26.40;99.20
40638;DHT22;26336;44.696;10.622;2023-07-13T04:28:14;26.30;98.90
40638;DHT22;26336;44.696;10.622;2023-07-13T04:31:20;26.40;99.00
40638;DHT22;26336;44.696;10.622;2023-07-13T04:34:24;26.30;99.00
40638;DHT22;26336;44.696;10.622;2023-07-13T04:37:31;26.40;99.40
40638;DHT22;26336;44.696;10.622;2023-07-13T04:40:35;26.30;99.10
40638;DHT22;26336;44.696;10.622;2023-07-13T04:43:40;26.30;99.30
40638;DHT22;26336;44.696;10.622;2023-07-13T04:46:43;26.30;99.30
40638;DHT22;26336;44.696;10.622;2023-07-13T04:49:47;26.30;99.40
40638;DHT22;26336;44.696;10.622;2023-07-13T04:52:51;26.30;99.40
40638;DHT22;26336;44.696;10.622;2023-07-13T04:55:56;26.30;99.50
40638;DHT22;26336;44.696;10.622;2023-07-13T04:59:00;26.30;99.70
40638;DHT22;26336;44.696;10.622;2023-07-13T05:02:05;26.30;99.50
40638;DHT22;26336;44.696;10.622;2023-07-13T05:05:08;26.30;99.40
40638;DHT22;26336;44.696;10.622;2023-07-13T05:08:12;26.20;99.30
40638;DHT22;26336;44.696;10.622;2023-07-13T05:11:18;26.20;99.30
40638;DHT22;26336;44.696;10.622;2023-07-13T05:14:22;26.20;99.20
40638;DHT22;26336;44.696;10.622;2023-07-13T05:17:25;26.20;99.10
40638;DHT22;26336;44.696;10.622;2023-07-13T05:20:29;26.20;99.40
40638;DHT22;26336;44.696;10.622;2023-07-13T05:23:34;26.20;99.00
40638;DHT22;26336;44.696;10.622;2023-07-13T05:26:39;26.10;99.00
40638;DHT22;26336;44.696;10.622;2023-07-13T05:29:43;25.90;99.30
40638;DHT22;26336;44.696;10.622;2023-07-13T05:32:51;25.80;99.60
40638;DHT22;26336;44.696;10.622;2023-07-13T05:35:55;25.90;99.80
40638;DHT22;26336;44.696;10.622;2023-07-13T05:38:59;25.90;99.60
40638;DHT22;26336;44.696;10.622;2023-07-13T05:42:05;25.90;99.70
40638;DHT22;26336;44.696;10.622;2023-07-13T05:45:09;25.90;99.80
40638;DHT22;26336;44.696;10.622;2023-07-13T05:48:14;25.90;99.50
40638;DHT22;26336;44.696;10.622;2023-07-13T05:51:18;25.90;99.40
40638;DHT22;26336;44.696;10.622;2023-07-13T05:54:23;25.80;99.70
40638;DHT22;26336;44.696;10.622;2023-07-13T05:57:27;25.90;99.50
40638;DHT22;26336;44.696;10.622;2023-07-13T06:00:31;25.70;99.40
40638;DHT22;26336;44.696;10.622;2023-07-13T06:03:35;25.60;99.70
40638;DHT22;26336;44.696;10.622;2023-07-13T06:06:38;25.60;99.60
40638;DHT22;26336;44.696;10.622;2023-07-13T06:09:42;25.70;99.50
40638;DHT22;26336;44.696;10.622;2023-07-13T06:12:46;25.70;99.50
40638;DHT22;26336;44.696;10.622;2023-07-13T06:15:53;25.80;99.40
40638;DHT22;26336;44.696;10.622;2023-07-13T06:18:57;25.80;99.40
40638;DHT22;26336;44.696;10.622;2023-07-13T06:22:01;25.80;99.40
40638;DHT22;26336;44.696;10.622;2023-07-13T06:25:06;25.70;99.50
40638;DHT22;26336;44.696;10.622;2023-07-13T06:28:09;25.60;99.70
40638;DHT22;26336;44.696;10.622;2023-07-13T06:31:14;25.60;99.50
40638;DHT22;26336;44.696;10.622;2023-07-13T06:34:18;25.70;99.20
40638;DHT22;26336;44.696;10.622;2023-07-13T06:37:22;25.80;99.20
40638;DHT22;26336;44.696;10.622;2023-07-13T06:40:26;25.90;99.10
40638;DHT22;26336;44.696;10.622;2023-07-13T06:43:32;25.90;99.00
40638;DHT22;26336;44.696;10.622;2023-07-13T06:46:36;26.00;98.90
40638;DHT22;26336;44.696;10.622;2023-07-13T06:49:41;26.00;99.10
40638;DHT22;26336;44.696;10.622;2023-07-13T06:52:44;26.00;99.10
40638;DHT22;26336;44.696;10.622;2023-07-13T06:55:48;26.00;99.40
40638;DHT22;26336;44.696;10.622;2023-07-13T06:58:52;26.00;98.90
40638;DHT22;26336;44.696;10.622;2023-07-13T07:01:58;26.00;99.20
40638;DHT22;26336;44.696;10.622;2023-07-13T07:05:02;25.90;99.50
40638;DHT22;26336;44.696;10.622;2023-07-13T07:08:09;25.90;99.50
40638;DHT22;26336;44.696;10.622;2023-07-13T07:11:22;25.80;99.60
40638;DHT22;26336;44.696;10.622;2023-07-13T07:14:29;25.80;99.90
40638;DHT22;26336;44.696;10.622;2023-07-13T07:17:33;25.80;99.90
40638;DHT22;26336;44.696;10.622;2023-07-13T07:20:37;25.80;99.90
40638;DHT22;26336;44.696;10.622;2023-07-13T07:23:42;25.80;99.90
40638;DHT22;26336;44.696;10.622;2023-07-13T07:26:46;25.90;99.90
40638;DHT22;26336;44.696;10.622;2023-07-13T07:29:50;25.90;99.70
40638;DHT22;26336;44.696;10.622;2023-07-13T07:32:54;25.90;99.60
40638;DHT22;26336;44.696;10.622;2023-07-13T07:35:58;26.00;99.30
40638;DHT22;26336;44.696;10.622;2023-07-13T07:39:02;25.90;99.70
40638;DHT22;26336;44.696;10.622;2023-07-13T07:42:07;25.90;99.50
40638;DHT22;26336;44.696;10.622;2023-07-13T07:45:11;26.00;99.40
40638;DHT22;26336;44.696;10.622;2023-07-13T07:48:15;26.00;99.40
40638;DHT22;26336;44.696;10.622;2023-07-13T07:51:19;25.90;99.60
40638;DHT22;26336;44.696;10.622;2023-07-13T07:54:23;25.70;99.90
40638;DHT22;26336;44.696;10.622;2023-07-13T07:57:27;25.60;99.90
40638;DHT22;26336;44.696;10.622;2023-07-13T08:00:31;25.40;99.90
40638;DHT22;26336;44.696;10.622;2023-07-13T08:03:36;25.20;99.90
40638;DHT22;26336;44.696;10.622;2023-07-13T08:06:40;25.30;99.90
40638;DHT22;26336;44.696;10.622;2023-07-13T08:09:44;25.20;99.90
40638;DHT22;26336;44.696;10.622;2023-07-13T08:12:53;25.20;99.90
40638;DHT22;26336;44.696;10.622;2023-07-13T08:15:58;25.30;99.90
40638;DHT22;26336;44.696;10.622;2023-07-13T08:19:02;25.40;99.90
40638;DHT22;26336;44.696;10.622;2023-07-13T08:22:07;25.50;99.90
40638;DHT22;26336;44.696;10.622;2023-07-13T08:25:11;25.60;99.80
40638;DHT22;26336;44.696;10.622;2023-07-13T08:28:15;25.60;99.90
40638;DHT22;26336;44.696;10.622;2023-07-13T08:31:19;25.60;99.90
40638;DHT22;26336;44.696;10.622;2023-07-13T08:34:23;25.60;99.90
40638;DHT22;26336;44.696;10.622;2023-07-13T08:37:27;25.40;99.90
40638;DHT22;26336;44.696;10.622;2023-07-13T08:40:34;25.30;99.90
40638;DHT22;26336;44.696;10.622;2023-07-13T08:43:38;25.40;99.90
40638;DHT22;26336;44.696;10.622;2023-07-13T08:46:42;25.30;99.90
40638;DHT22;26336;44.696;10.622;2023-07-13T08:49:47;25.30;99.90
40638;DHT22;26336;44.696;10.622;2023-07-13T08:52:53;25.40;99.90
40638;DHT22;26336;44.696;10.622;2023-07-13T08:55:59;25.10;99.90
40638;DHT22;26336;44.696;10.622;2023-07-13T08:59:13;24.60;99.90
40638;DHT22;26336;44.696;10.622;2023-07-13T09:02:54;24.60;99.90
40638;DHT22;26336;44.696;10.622;2023-07-13T09:06:00;24.70;99.90
40638;DHT22;26336;44.696;10.622;2023-07-13T09:13:00;24.90;99.90
40638;DHT22;26336;44.696;10.622;2023-07-13T09:16:09;25.00;99.90
40638;DHT22;26336;44.696;10.622;2023-07-13T09:19:23;25.10;99.90
40638;DHT22;26336;44.696;10.622;2023-07-13T09:22:31;25.10;99.90
40638;DHT22;26336;44.696;10.622;2023-07-13T09:25:39;25.10;99.90
40638;DHT22;26336;44.696;10.622;2023-07-13T09:28:47;25.00;99.90
40638;DHT22;26336;44.696;10.622;2023-07-13T09:31:55;25.10;99.90
40638;DHT22;26336;44.696;10.622;2023-07-13T09:35:12;25.10;99.90
40638;DHT22;26336;44.696;10.622;2023-07-13T09:38:18;25.10;99.90
40638;DHT22;26336;44.696;10.622;2023-07-13T09:44:54;25.10;99.90
40638;DHT22;26336;44.696;10.622;2023-07-13T09:48:00;25.20;99.90
40638;DHT22;26336;44.696;10.622;2023-07-13T09:51:13;25.20;99.90
40638;DHT22;26336;44.696;10.622;2023-07-13T09:54:24;25.20;99.90
40638;DHT22;26336;44.696;10.622;2023-07-13T09:57:28;25.30;99.90
40638;DHT22;26336;44.696;10.622;2023-07-13T10:00:32;25.30;99.90
40638;DHT22;26336;44.696;10.622;2023-07-13T10:03:36;25.40;99.90
40638;DHT22;26336;44.696;10.622;2023-07-13T10:06:47;25.40;99.90
40638;DHT22;26336;44.696;10.622;2023-07-13T10:09:58;25.50;99.90
40638;DHT22;26336;44.696;10.622;2023-07-13T10:13:04;25.60;99.90
40638;DHT22;26336;44.696;10.622;2023-07-13T10:16:09;25.70;99.90
40638;DHT22;26336;44.696;10.622;2023-07-13T10:19:15;25.80;99.90
40638;DHT22;26336;44.696;10.622;2023-07-13T10:22:28;25.90;99.90
40638;DHT22;26336;44.696;10.622;2023-07-13T10:25:41;26.00;99.90
40638;DHT22;26336;44.696;10.622;2023-07-13T10:28:52;26.10;99.90
40638;DHT22;26336;44.696;10.622;2023-07-13T10:31:56;26.10;99.90
40638;DHT22;26336;44.696;10.622;2023-07-13T10:35:00;26.20;99.90
40638;DHT22;26336;44.696;10.622;2023-07-13T10:38:11;26.30;99.90
40638;DHT22;26336;44.696;10.622;2023-07-13T10:41:19;26.40;99.90
40638;DHT22;26336;44.696;10.622;2023-07-13T10:44:27;26.40;99.90
40638;DHT22;26336;44.696;10.622;2023-07-13T10:47:32;26.50;99.90
40638;DHT22;26336;44.696;10.622;2023-07-13T10:50:41;26.60;99.90
40638;DHT22;26336;44.696;10.622;2023-07-13T10:53:47;26.70;99.90
40638;DHT22;26336;44.696;10.622;2023-07-13T10:57:07;26.70;99.90
40638;DHT22;26336;44.696;10.622;2023-07-13T11:00:18;26.80;99.20
40638;DHT22;26336;44.696;10.622;2023-07-13T11:03:23;26.90;99.20
40638;DHT22;26336;44.696;10.622;2023-07-13T11:06:41;26.90;99.40
40638;DHT22;26336;44.696;10.622;2023-07-13T11:09:55;27.00;99.10
40638;DHT22;26336;44.696;10.622;2023-07-13T11:13:00;27.10;99.70
40638;DHT22;26336;44.696;10.622;2023-07-13T11:16:38;27.20;99.60
40638;DHT22;26336;44.696;10.622;2023-07-13T11:19:51;27.30;99.60
40638;DHT22;26336;44.696;10.622;2023-07-13T11:23:32;27.30;99.90
40638;DHT22;26336;44.696;10.622;2023-07-13T11:29:44;27.40;99.90
40638;DHT22;26336;44.696;10.622;2023-07-13T11:33:03;27.50;99.90
40638;DHT22;26336;44.696;10.622;2023-07-13T11:36:18;27.60;99.50
40638;DHT22;26336;44.696;10.622;2023-07-13T11:39:37;27.70;99.50
40638;DHT22;26336;44.696;10.622;2023-07-13T11:42:44;27.70;99.10
40638;DHT22;26336;44.696;10.622;2023-07-13T11:45:53;27.80;98.90
40638;DHT22;26336;44.696;10.622;2023-07-13T11:48:58;27.80;98.90
40638;DHT22;26336;44.696;10.622;2023-07-13T11:52:01;27.80;99.30
40638;DHT22;26336;44.696;10.622;2023-07-13T11:55:15;27.80;99.30
40638;DHT22;26336;44.696;10.622;2023-07-13T11:58:23;27.90;99.50
40638;DHT22;26336;44.696;10.622;2023-07-13T12:01:31;28.00;99.30
40638;DHT22;26336;44.696;10.622;2023-07-13T12:04:38;28.00;99.40
40638;DHT22;26336;44.696;10.622;2023-07-13T12:07:44;28.00;99.30
40638;DHT22;26336;44.696;10.622;2023-07-13T12:10:48;28.00;99.20
40638;DHT22;26336;44.696;10.622;2023-07-13T12:13:59;28.00;99.40
40638;DHT22;26336;44.696;10.622;2023-07-13T12:17:22;28.10;99.20
40638;DHT22;26336;44.696;10.622;2023-07-13T12:20:33;28.20;99.20
40638;DHT22;26336;44.696;10.622;2023-07-13T12:23:43;28.20;99.10
40638;DHT22;26336;44.696;10.622;2023-07-13T12:26:53;28.30;99.10
40638;DHT22;26336;44.696;10.622;2023-07-13T12:30:19;28.40;99.20
40638;DHT22;26336;44.696;10.622;2023-07-13T12:33:28;28.40;99.00
40638;DHT22;26336;44.696;10.622;2023-07-13T12:36:35;28.50;98.90
40638;DHT22;26336;44.696;10.622;2023-07-13T12:39:47;28.50;98.70
40638;DHT22;26336;44.696;10.622;2023-07-13T12:42:52;28.60;98.90
40638;DHT22;26336;44.696;10.622;2023-07-13T12:46:20;28.60;98.60
40638;DHT22;26336;44.696;10.622;2023-07-13T12:49:27;28.70;98.40
40638;DHT22;26336;44.696;10.622;2023-07-13T12:52:36;28.70;98.20
40638;DHT22;26336;44.696;10.622;2023-07-13T12:55:49;28.70;98.20
40638;DHT22;26336;44.696;10.622;2023-07-13T12:59:01;28.80;98.20
40638;DHT22;26336;44.696;10.622;2023-07-13T13:02:30;28.80;98.00
40638;DHT22;26336;44.696;10.622;2023-07-13T13:05:36;28.80;98.00
40638;DHT22;26336;44.696;10.622;2023-07-13T13:08:41;28.80;97.80
40638;DHT22;26336;44.696;10.622;2023-07-13T13:11:47;28.80;97.90
40638;DHT22;26336;44.696;10.622;2023-07-13T13:14:51;28.80;97.80
40638;DHT22;26336;44.696;10.622;2023-07-13T13:17:56;28.90;98.00
40638;DHT22;26336;44.696;10.622;2023-07-13T13:21:02;28.90;97.60
40638;DHT22;26336;44.696;10.622;2023-07-13T13:24:22;29.00;97.70
40638;DHT22;26336;44.696;10.622;2023-07-13T13:27:26;29.00;98.00
40638;DHT22;26336;44.696;10.622;2023-07-13T13:30:31;29.00;97.80
40638;DHT22;26336;44.696;10.622;2023-07-13T13:33:35;29.00;97.90
40638;DHT22;26336;44.696;10.622;2023-07-13T13:36:39;29.10;97.90
40638;DHT22;26336;44.696;10.622;2023-07-13T13:39:44;29.10;97.90
40638;DHT22;26336;44.696;10.622;2023-07-13T13:42:48;29.10;97.50
40638;DHT22;26336;44.696;10.622;2023-07-13T13:45:53;29.10;97.60
40638;DHT22;26336;44.696;10.622;2023-07-13T13:48:58;29.20;97.20
40638;DHT22;26336;44.696;10.622;2023-07-13T13:52:02;29.20;97.30
40638;DHT22;26336;44.696;10.622;2023-07-13T13:55:19;29.20;97.40
40638;DHT22;26336;44.696;10.622;2023-07-13T13:58:24;29.20;97.10
40638;DHT22;26336;44.696;10.622;2023-07-13T14:01:29;29.20;96.90
40638;DHT22;26336;44.696;10.622;2023-07-13T14:04:34;29.20;96.90
40638;DHT22;26336;44.696;10.622;2023-07-13T14:07:38;29.20;96.80
40638;DHT22;26336;44.696;10.622;2023-07-13T14:10:47;29.20;96.50
40638;DHT22;26336;44.696;10.622;2023-07-13T14:16:56;29.20;96.90
40638;DHT22;26336;44.696;10.622;2023-07-13T14:20:00;29.20;97.00
40638;DHT22;26336;44.696;10.622;2023-07-13T14:23:06;29.20;97.00
40638;DHT22;26336;44.696;10.622;2023-07-13T14:26:16;29.20;97.10
40638;DHT22;26336;44.696;10.622;2023-07-13T14:29:21;29.10;96.90
40638;DHT22;26336;44.696;10.622;2023-07-13T14:32:25;29.10;96.90
40638;DHT22;26336;44.696;10.622;2023-07-13T14:35:30;29.10;96.90
40638;DHT22;26336;44.696;10.622;2023-07-13T14:38:34;29.10;97.10
40638;DHT22;26336;44.696;10.622;2023-07-13T14:41:38;29.10;97.10
40638;DHT22;26336;44.696;10.622;2023-07-13T14:44:42;29.10;97.30
40638;DHT22;26336;44.696;10.622;2023-07-13T14:47:53;29.10;97.20
40638;DHT22;26336;44.696;10.622;2023-07-13T14:51:07;29.10;97.30
40638;DHT22;26336;44.696;10.622;2023-07-13T14:54:28;29.10;97.40
40638;DHT22;26336;44.696;10.622;2023-07-13T14:57:35;29.20;96.40
40638;DHT22;26336;44.696;10.622;2023-07-13T15:00:46;29.20;96.50
40638;DHT22;26336;44.696;10.622;2023-07-13T15:04:02;29.30;96.90
40638;DHT22;26336;44.696;10.622;2023-07-13T15:08:02;29.40;96.60
40638;DHT22;26336;44.696;10.622;2023-07-13T15:11:26;29.40;96.10
40638;DHT22;26336;44.696;10.622;2023-07-13T15:14:31;29.50;96.20
40638;DHT22;26336;44.696;10.622;2023-07-13T15:17:43;29.60;96.10
40638;DHT22;26336;44.696;10.622;2023-07-13T15:20:57;29.60;96.20
40638;DHT22;26336;44.696;10.622;2023-07-13T15:24:14;29.60;96.60
40638;DHT22;26336;44.696;10.622;2023-07-13T15:27:59;29.60;96.50
40638;DHT22;26336;44.696;10.622;2023-07-13T15:31:31;29.60;96.20
40638;DHT22;26336;44.696;10.622;2023-07-13T15:34:54;29.70;96.10
40638;DHT22;26336;44.696;10.622;2023-07-13T15:37:58;29.80;96.20
40638;DHT22;26336;44.696;10.622;2023-07-13T15:41:21;29.80;96.30
40638;DHT22;26336;44.696;10.622;2023-07-13T15:44:33;29.80;96.30
40638;DHT22;26336;44.696;10.622;2023-07-13T15:47:43;29.80;96.20
40638;DHT22;26336;44.696;10.622;2023-07-13T15:50:59;29.80;96.10
40638;DHT22;26336;44.696;10.622;2023-07-13T15:54:17;29.90;96.70
40638;DHT22;26336;44.696;10.622;2023-07-13T15:57:55;29.90;96.40
40638;DHT22;26336;44.696;10.622;2023-07-13T16:02:16;29.90;96.00
40638;DHT22;26336;44.696;10.622;2023-07-13T16:05:46;29.90;96.10
40638;DHT22;26336;44.696;10.622;2023-07-13T16:14:22;30.10;96.40
40638;DHT22;26336;44.696;10.622;2023-07-13T16:22:27;30.00;96.50
40638;DHT22;26336;44.696;10.622;2023-07-13T16:26:30;29.90;96.40
40638;DHT22;26336;44.696;10.622;2023-07-13T16:30:49;29.90;96.40
40638;DHT22;26336;44.696;10.622;2023-07-13T16:35:10;29.90;96.40
40638;DHT22;26336;44.696;10.622;2023-07-13T16:38:34;30.00;96.30
40638;DHT22;26336;44.696;10.622;2023-07-13T16:42:30;29.90;96.40
40638;DHT22;26336;44.696;10.622;2023-07-13T16:46:42;29.90;96.50
40638;DHT22;26336;44.696;10.622;2023-07-13T16:51:01;29.90;96.90
40638;DHT22;26336;44.696;10.622;2023-07-13T16:54:51;29.90;96.90
40638;DHT22;26336;44.696;10.622;2023-07-13T16:59:18;29.90;97.30
40638;DHT22;26336;44.696;10.622;2023-07-13T17:03:52;29.90;97.00
40638;DHT22;26336;44.696;10.622;2023-07-13T17:11:57;29.80;96.80
40638;DHT22;26336;44.696;10.622;2023-07-13T17:15:49;29.80;96.90
40638;DHT22;26336;44.696;10.622;2023-07-13T17:20:17;29.70;96.90
40638;DHT22;26336;44.696;10.622;2023-07-13T17:24:00;29.70;96.70
40638;DHT22;26336;44.696;10.622;2023-07-13T17:27:56;29.60;96.90
40638;DHT22;26336;44.696;10.622;2023-07-13T17:32:29;29.60;97.40
40638;DHT22;26336;44.696;10.622;2023-07-13T17:37:16;29.60;97.10
40638;DHT22;26336;44.696;10.622;2023-07-13T17:45:51;29.50;97.50
40638;DHT22;26336;44.696;10.622;2023-07-13T17:54:59;29.50;97.90
40638;DHT22;26336;44.696;10.622;2023-07-13T17:58:06;29.50;97.60
40638;DHT22;26336;44.696;10.622;2023-07-13T18:01:16;29.50;97.60
40638;DHT22;26336;44.696;10.622;2023-07-13T18:04:20;29.50;97.60
40638;DHT22;26336;44.696;10.622;2023-07-13T18:07:26;29.40;97.80
40638;DHT22;26336;44.696;10.622;2023-07-13T18:10:33;29.30;97.60
40638;DHT22;26336;44.696;10.622;2023-07-13T18:13:37;29.40;97.50
40638;DHT22;26336;44.696;10.622;2023-07-13T18:16:55;29.30;97.60
40638;DHT22;26336;44.696;10.622;2023-07-13T18:20:00;29.30;97.50
40638;DHT22;26336;44.696;10.622;2023-07-13T18:23:04;29.30;97.60
40638;DHT22;26336;44.696;10.622;2023-07-13T18:26:11;29.30;97.60
40638;DHT22;26336;44.696;10.622;2023-07-13T18:29:15;29.30;97.80
40638;DHT22;26336;44.696;10.622;2023-07-13T18:32:20;29.20;97.70
40638;DHT22;26336;44.696;10.622;2023-07-13T18:35:33;29.20;97.80
40638;DHT22;26336;44.696;10.622;2023-07-13T18:38:38;29.20;97.90
40638;DHT22;26336;44.696;10.622;2023-07-13T18:41:43;29.20;98.00
40638;DHT22;26336;44.696;10.622;2023-07-13T18:44:48;29.20;98.00
40638;DHT22;26336;44.696;10.622;2023-07-13T18:47:55;29.10;98.10
40638;DHT22;26336;44.696;10.622;2023-07-13T18:51:02;29.20;98.00
40638;DHT22;26336;44.696;10.622;2023-07-13T18:54:13;29.20;98.00
40638;DHT22;26336;44.696;10.622;2023-07-13T18:57:19;29.10;98.20
40638;DHT22;26336;44.696;10.622;2023-07-13T19:00:24;29.10;98.40
40638;DHT22;26336;44.696;10.622;2023-07-13T19:03:33;29.10;98.60
40638;DHT22;26336;44.696;10.622;2023-07-13T19:06:38;29.10;98.70
40638;DHT22;26336;44.696;10.622;2023-07-13T19:13:38;29.10;98.50
40638;DHT22;26336;44.696;10.622;2023-07-13T19:16:50;29.10;98.60
40638;DHT22;26336;44.696;10.622;2023-07-13T19:19:54;29.00;98.60
40638;DHT22;26336;44.696;10.622;2023-07-13T19:23:02;29.00;98.60
40638;DHT22;26336;44.696;10.622;2023-07-13T19:26:22;28.90;98.50
40638;DHT22;26336;44.696;10.622;2023-07-13T19:29:27;28.90;98.60
40638;DHT22;26336;44.696;10.622;2023-07-13T19:32:36;28.90;98.70
40638;DHT22;26336;44.696;10.622;2023-07-13T19:35:40;28.90;98.60
40638;DHT22;26336;44.696;10.622;2023-07-13T19:38:48;28.80;98.40
40638;DHT22;26336;44.696;10.622;2023-07-13T19:41:55;28.80;98.50
40638;DHT22;26336;44.696;10.622;2023-07-13T19:45:00;28.80;98.50
40638;DHT22;26336;44.696;10.622;2023-07-13T19:48:07;28.70;98.50
40638;DHT22;26336;44.696;10.622;2023-07-13T19:51:21;28.80;98.90
40638;DHT22;26336;44.696;10.622;2023-07-13T19:54:25;28.70;98.70
40638;DHT22;26336;44.696;10.622;2023-07-13T19:57:33;28.70;98.90
40638;DHT22;26336;44.696;10.622;2023-07-13T20:00:40;28.70;98.90
40638;DHT22;26336;44.696;10.622;2023-07-13T20:03:44;28.60;99.20
40638;DHT22;26336;44.696;10.622;2023-07-13T20:06:48;28.50;99.30
40638;DHT22;26336;44.696;10.622;2023-07-13T20:09:53;28.50;99.20
40638;DHT22;26336;44.696;10.622;2023-07-13T20:12:58;28.40;99.40
40638;DHT22;26336;44.696;10.622;2023-07-13T20:16:03;28.30;99.50
40638;DHT22;26336;44.696;10.622;2023-07-13T20:19:14;28.40;99.60
40638;DHT22;26336;44.696;10.622;2023-07-13T20:22:19;28.40;99.70
40638;DHT22;26336;44.696;10.622;2023-07-13T20:25:32;28.40;99.40
40638;DHT22;26336;44.696;10.622;2023-07-13T20:28:39;28.40;99.40